UAE92J LOWS-EGCC
Flight info
| Callsign | UAE92J |
|---|---|
| Flight time | N/A |
| Altitude | 12000 |
| Route | TRAUN L856 KONIN/N0438F380 DCT AMEXO DCT BABEG DCT ADENU L608 LIRSU DCT DENUT L610 LAM UN57 WELIN T420 ELVOS |
| Aircraft | A20N/M-SDE2E3FGHIRWXY/LB1 |
Departure
| Time | 2026-05-04 17:52 |
|---|---|
| Airport | Salzburg Airport (LOWS) |
Arrival
| Time | N/A |
|---|---|
| Airport | Manchester Airport (EGCC) |
| Time | Latitude | Longitude | Altitude | Speed | Heading |
|---|---|---|---|---|---|
| 2026-05-04 15:34 | 47.79170 | 12.99868 | 1424 ft | 0 kts | 282° |
| 2026-05-04 17:40 | 47.79168 | 12.99879 | 1424 ft | 3 kts | 281° |
| 2026-05-04 17:40 | 47.79167 | 12.99905 | 1423 ft | 3 kts | 261° |
| 2026-05-04 17:40 | 47.79170 | 12.99930 | 1423 ft | 3 kts | 258° |
| 2026-05-04 17:41 | 47.79175 | 12.99953 | 1422 ft | 3 kts | 235° |
| 2026-05-04 17:41 | 47.79187 | 12.99971 | 1422 ft | 2 kts | 214° |
| 2026-05-04 17:41 | 47.79202 | 12.99982 | 1422 ft | 2 kts | 198° |
| 2026-05-04 17:41 | 47.79218 | 12.99987 | 1423 ft | 2 kts | 179° |
| 2026-05-04 17:42 | 47.79229 | 12.99986 | 1423 ft | 1 kts | 158° |
| 2026-05-04 17:46 | 47.79220 | 12.99990 | 1423 ft | 4 kts | 161° |
| 2026-05-04 17:46 | 47.79178 | 13.00014 | 1422 ft | 9 kts | 153° |
| 2026-05-04 17:46 | 47.79112 | 13.00053 | 1421 ft | 12 kts | 159° |
| 2026-05-04 17:47 | 47.79087 | 13.00070 | 1420 ft | 3 kts | 158° |
| 2026-05-04 17:47 | 47.79049 | 13.00094 | 1420 ft | 9 kts | 156° |
| 2026-05-04 17:47 | 47.78980 | 13.00142 | 1423 ft | 12 kts | 145° |
| 2026-05-04 17:47 | 47.78953 | 13.00264 | 1417 ft | 15 kts | 96° |
| 2026-05-04 17:48 | 47.78904 | 13.00396 | 1415 ft | 15 kts | 152° |
| 2026-05-04 17:48 | 47.78804 | 13.00462 | 1420 ft | 16 kts | 158° |
| 2026-05-04 17:48 | 47.78697 | 13.00528 | 1420 ft | 17 kts | 157° |
| 2026-05-04 17:48 | 47.78593 | 13.00597 | 1421 ft | 17 kts | 153° |
| 2026-05-04 17:49 | 47.78480 | 13.00672 | 1420 ft | 19 kts | 156° |
| 2026-05-04 17:49 | 47.78356 | 13.00744 | 1420 ft | 20 kts | 156° |
| 2026-05-04 17:49 | 47.78307 | 13.00775 | 1420 ft | 0 kts | 157° |
| 2026-05-04 17:50 | 47.78273 | 13.00798 | 1418 ft | 12 kts | 155° |
| 2026-05-04 17:50 | 47.78194 | 13.00883 | 1419 ft | 15 kts | 129° |
| 2026-05-04 17:50 | 47.78191 | 13.01036 | 1419 ft | 14 kts | 63° |
| 2026-05-04 17:51 | 47.78274 | 13.01058 | 1417 ft | 12 kts | 336° |
| 2026-05-04 17:51 | 47.78511 | 13.00911 | 1419 ft | 77 kts | 338° |
| 2026-05-04 17:51 | 47.79250 | 13.00448 | 1423 ft | 148 kts | 337° |
| 2026-05-04 17:51 | 47.80283 | 12.99787 | 1920 ft | 163 kts | 338° |
| 2026-05-04 17:52 | 47.81354 | 12.99116 | 2627 ft | 172 kts | 338° |
| 2026-05-04 17:52 | 47.82260 | 12.98432 | 2978 ft | 188 kts | 322° |
| 2026-05-04 17:52 | 47.83055 | 12.96787 | 3596 ft | 198 kts | 295° |
| 2026-05-04 17:52 | 47.83666 | 12.94949 | 4390 ft | 198 kts | 298° |
| 2026-05-04 17:53 | 47.84357 | 12.93144 | 5206 ft | 198 kts | 300° |
| 2026-05-04 17:53 | 47.85040 | 12.91433 | 5959 ft | 198 kts | 299° |
| 2026-05-04 17:53 | 47.85723 | 12.89705 | 6698 ft | 199 kts | 298° |
| 2026-05-04 17:53 | 47.86389 | 12.87992 | 7368 ft | 201 kts | 298° |
| 2026-05-04 17:54 | 47.87099 | 12.86168 | 8106 ft | 202 kts | 297° |
| 2026-05-04 17:54 | 47.87803 | 12.84354 | 8830 ft | 203 kts | 297° |
| 2026-05-04 17:54 | 47.88522 | 12.82485 | 9300 ft | 218 kts | 296° |
| 2026-05-04 17:54 | 47.89277 | 12.80510 | 9601 ft | 238 kts | 296° |
| 2026-05-04 17:55 | 47.90139 | 12.78259 | 9871 ft | 261 kts | 296° |
| 2026-05-04 17:55 | 47.91088 | 12.75780 | 10185 ft | 284 kts | 296° |
| 2026-05-04 17:55 | 47.92095 | 12.73150 | 10486 ft | 307 kts | 296° |
| 2026-05-04 17:55 | 47.93210 | 12.70191 | 10756 ft | 330 kts | 297° |
| 2026-05-04 17:56 | 47.94343 | 12.67124 | 11204 ft | 340 kts | 294° |
| 2026-05-04 17:56 | 47.95491 | 12.64039 | 11756 ft | 344 kts | 297° |
| 2026-05-04 17:56 | 47.96617 | 12.60839 | 12141 ft | 345 kts | 288° |
| 2026-05-04 17:56 | 47.97161 | 12.57372 | 12725 ft | 342 kts | 271° |
| 2026-05-04 17:57 | 47.97044 | 12.53829 | 13501 ft | 339 kts | 257° |
| 2026-05-04 17:57 | 47.96663 | 12.50342 | 14143 ft | 343 kts | 258° |
| 2026-05-04 17:57 | 47.96335 | 12.46840 | 14763 ft | 346 kts | 261° |
| 2026-05-04 17:57 | 47.96018 | 12.43310 | 15322 ft | 350 kts | 261° |
| 2026-05-04 17:58 | 47.95695 | 12.39642 | 15925 ft | 352 kts | 258° |
| 2026-05-04 17:58 | 47.95369 | 12.36035 | 16459 ft | 355 kts | 266° |
| 2026-05-04 17:58 | 47.95028 | 12.32301 | 16976 ft | 358 kts | 260° |
| 2026-05-04 17:58 | 47.94676 | 12.28624 | 17672 ft | 361 kts | 260° |
| 2026-05-04 17:59 | 47.94315 | 12.24890 | 18301 ft | 365 kts | 260° |
| 2026-05-04 17:59 | 47.93955 | 12.21170 | 18867 ft | 369 kts | 261° |
| 2026-05-04 17:59 | 47.93221 | 12.13537 | 20005 ft | 376 kts | 261° |
| 2026-05-04 18:00 | 47.92844 | 12.09665 | 20576 ft | 379 kts | 261° |
| 2026-05-04 18:00 | 47.92489 | 12.06027 | 21093 ft | 382 kts | 260° |
| 2026-05-04 18:00 | 47.92136 | 12.02410 | 21485 ft | 383 kts | 267° |
| 2026-05-04 18:00 | 47.91748 | 11.98463 | 21851 ft | 385 kts | 261° |
| 2026-05-04 18:01 | 47.91369 | 11.94426 | 22209 ft | 390 kts | 261° |
| 2026-05-04 18:01 | 47.90994 | 11.90486 | 22786 ft | 392 kts | 261° |
| 2026-05-04 18:01 | 47.90626 | 11.86759 | 23284 ft | 395 kts | 261° |
| 2026-05-04 18:02 | 47.89797 | 11.78517 | 24253 ft | 400 kts | 260° |
| 2026-05-04 18:02 | 47.89388 | 11.74415 | 24719 ft | 403 kts | 261° |
| 2026-05-04 18:02 | 47.88978 | 11.70302 | 25154 ft | 405 kts | 261° |
| 2026-05-04 18:02 | 47.88563 | 11.66139 | 25604 ft | 407 kts | 260° |
| 2026-05-04 18:03 | 47.88138 | 11.61916 | 26039 ft | 410 kts | 261° |
| 2026-05-04 18:03 | 47.87736 | 11.57912 | 26442 ft | 412 kts | 260° |
| 2026-05-04 18:03 | 47.87311 | 11.53704 | 26865 ft | 415 kts | 260° |
| 2026-05-04 18:03 | 47.86885 | 11.49500 | 27269 ft | 417 kts | 260° |
| 2026-05-04 18:04 | 47.86443 | 11.45153 | 27661 ft | 419 kts | 260° |
| 2026-05-04 18:04 | 47.86167 | 11.41095 | 28014 ft | 423 kts | 269° |
| 2026-05-04 18:04 | 47.87546 | 11.32494 | 28742 ft | 432 kts | 295° |
| 2026-05-04 18:05 | 47.89168 | 11.28632 | 29088 ft | 436 kts | 302° |
| 2026-05-04 18:05 | 47.90836 | 11.24910 | 29418 ft | 438 kts | 301° |
| 2026-05-04 18:05 | 47.92500 | 11.21115 | 29761 ft | 440 kts | 301° |
| 2026-05-04 18:05 | 47.94172 | 11.17278 | 30090 ft | 442 kts | 301° |
| 2026-05-04 18:06 | 47.97553 | 11.09503 | 30649 ft | 446 kts | 301° |
| 2026-05-04 18:06 | 47.99261 | 11.05575 | 30956 ft | 448 kts | 301° |
| 2026-05-04 18:06 | 48.00955 | 11.01674 | 31265 ft | 449 kts | 301° |
| 2026-05-04 18:07 | 48.02664 | 10.97737 | 31632 ft | 449 kts | 301° |
| 2026-05-04 18:07 | 48.04354 | 10.93837 | 31996 ft | 449 kts | 300° |
| 2026-05-04 18:07 | 48.06052 | 10.89911 | 32354 ft | 448 kts | 300° |
| 2026-05-04 18:07 | 48.07169 | 10.87325 | 32586 ft | 448 kts | 300° |
| 2026-05-04 18:08 | 48.08772 | 10.83610 | 32911 ft | 447 kts | 300° |
| 2026-05-04 18:08 | 48.11112 | 10.78448 | 33377 ft | 448 kts | 305° |
| 2026-05-04 18:08 | 48.12342 | 10.76077 | 33602 ft | 448 kts | 305° |
| 2026-05-04 18:08 | 48.14244 | 10.72384 | 33888 ft | 447 kts | 305° |
| 2026-05-04 18:09 | 48.20220 | 10.60653 | 33936 ft | 444 kts | 304° |
| 2026-05-04 18:10 | 48.23869 | 10.53457 | 33948 ft | 444 kts | 304° |
| 2026-05-04 18:10 | 48.27603 | 10.46079 | 33965 ft | 444 kts | 304° |
| 2026-05-04 18:11 | 48.31343 | 10.38668 | 33972 ft | 443 kts | 304° |
| 2026-05-04 18:11 | 48.34985 | 10.31432 | 33959 ft | 442 kts | 304° |
| 2026-05-04 18:12 | 48.38674 | 10.24083 | 33936 ft | 441 kts | 303° |
| 2026-05-04 18:12 | 48.42338 | 10.16763 | 33932 ft | 440 kts | 303° |
| 2026-05-04 18:13 | 48.46051 | 10.09323 | 33934 ft | 444 kts | 303° |
| 2026-05-04 18:14 | 48.51537 | 9.98280 | 33981 ft | 444 kts | 303° |
| 2026-05-04 18:14 | 48.55237 | 9.90826 | 33984 ft | 443 kts | 303° |
| 2026-05-04 18:15 | 48.62453 | 9.76213 | 33968 ft | 441 kts | 303° |
| 2026-05-04 18:16 | 48.66126 | 9.68737 | 33979 ft | 454 kts | 303° |
| 2026-05-04 18:16 | 48.69951 | 9.61089 | 33963 ft | 457 kts | 304° |
| 2026-05-04 18:17 | 48.75812 | 9.49808 | 33960 ft | 457 kts | 304° |
| 2026-05-04 18:18 | 48.81677 | 9.38393 | 33985 ft | 456 kts | 304° |
| 2026-05-04 18:18 | 48.85562 | 9.30781 | 33975 ft | 458 kts | 303° |
| 2026-05-04 18:19 | 48.91426 | 9.19254 | 33955 ft | 458 kts | 303° |
| 2026-05-04 18:19 | 48.95320 | 9.11575 | 33970 ft | 458 kts | 303° |
| 2026-05-04 18:20 | 48.99204 | 9.03894 | 33994 ft | 457 kts | 303° |
| 2026-05-04 18:20 | 49.03083 | 8.96195 | 33992 ft | 458 kts | 303° |
| 2026-05-04 18:21 | 49.06968 | 8.88466 | 33982 ft | 458 kts | 303° |
| 2026-05-04 18:21 | 49.10855 | 8.80710 | 33989 ft | 457 kts | 303° |
| 2026-05-04 18:22 | 49.14677 | 8.73063 | 33972 ft | 457 kts | 303° |
| 2026-05-04 18:22 | 49.18538 | 8.65314 | 33961 ft | 457 kts | 303° |
| 2026-05-04 18:23 | 49.22376 | 8.57588 | 33962 ft | 456 kts | 303° |
| 2026-05-04 18:23 | 49.26205 | 8.49860 | 33968 ft | 455 kts | 302° |
| 2026-05-04 18:24 | 49.30062 | 8.42052 | 33990 ft | 455 kts | 302° |
| 2026-05-04 18:24 | 49.33801 | 8.34462 | 33969 ft | 455 kts | 302° |
| 2026-05-04 18:25 | 49.37593 | 8.26739 | 33970 ft | 454 kts | 302° |
| 2026-05-04 18:25 | 49.41392 | 8.18982 | 33984 ft | 454 kts | 302° |
| 2026-05-04 18:26 | 49.45184 | 8.11217 | 33984 ft | 454 kts | 302° |
| 2026-05-04 18:26 | 49.48853 | 8.03681 | 33986 ft | 454 kts | 304° |
| 2026-05-04 18:27 | 49.52545 | 7.96100 | 33968 ft | 454 kts | 302° |
| 2026-05-04 18:27 | 49.56347 | 7.88235 | 33966 ft | 455 kts | 301° |
| 2026-05-04 18:28 | 49.60135 | 7.80379 | 33954 ft | 457 kts | 301° |
| 2026-05-04 18:28 | 49.63931 | 7.72493 | 33949 ft | 459 kts | 301° |
| 2026-05-04 18:29 | 49.67756 | 7.64551 | 33950 ft | 455 kts | 301° |
| 2026-05-04 18:29 | 49.71365 | 7.56969 | 33993 ft | 454 kts | 301° |
| 2026-05-04 18:30 | 49.77060 | 7.45027 | 33973 ft | 459 kts | 301° |